Time;durP1;ratioP1;P1;durP2;ratioP2;P2;SDS_P1;SDS_P2;PMS_P1;PMS_P2;Temp;Humidity;BMP_temperature;BMP_pressure;BME280_temperature;BME280_humidity;BME280_pressure;Samples;Min_cycle;Max_cycle;Signal;HPM_P1;HPM_P2
2022/06/30 00:00:00;;;;;;;4.18;3.10;;;;;;;28.09;46.69;99200.59;4118194;28;20231;-69
2022/06/30 00:02:01;;;;;;;6.05;3.38;;;;;;;28.27;46.72;99192.75;4125688;28;20234;-69
2022/06/30 00:04:03;;;;;;;7.38;3.40;;;;;;;27.96;46.76;99193.06;4124924;28;20253;-69
2022/06/30 00:06:05;;;;;;;7.03;4.00;;;;;;;28.09;47.11;99189.66;4124694;28;20242;-69
2022/06/30 00:08:07;;;;;;;4.85;3.63;;;;;;;28.15;46.89;99193.16;4126041;28;20588;-70
2022/06/30 00:10:11;;;;;;;4.20;3.30;;;;;;;28.00;46.89;99188.63;4127555;28;20230;-70
2022/06/30 00:12:13;;;;;;;4.80;3.28;;;;;;;28.10;46.84;99187.72;4127687;28;20249;-69
2022/06/30 00:14:15;;;;;;;6.38;3.30;;;;;;;27.98;47.25;99196.31;4123759;28;20262;-69
2022/06/30 00:16:17;;;;;;;6.90;3.58;;;;;;;27.49;47.84;99200.00;4123411;28;20320;-68
2022/06/30 00:18:19;;;;;;;4.95;3.80;;;;;;;27.17;48.47;99195.88;4127921;28;20225;-69
2022/06/30 00:20:21;;;;;;;4.43;4.03;;;;;;;26.73;49.61;99191.19;4132123;28;20291;-68
2022/06/30 00:22:23;;;;;;;4.63;3.80;;;;;;;27.46;48.59;99174.09;4130964;28;20309;-68
2022/06/30 00:24:24;;;;;;;5.72;3.80;;;;;;;27.98;47.73;99171.72;4127730;28;20273;-69
2022/06/30 00:26:27;;;;;;;6.20;4.18;;;;;;;27.89;47.80;99177.00;4127177;28;20645;-69
2022/06/30 00:28:28;;;;;;;6.63;4.00;;;;;;;27.89;47.52;99182.47;4143157;28;20661;-69
2022/06/30 00:30:30;;;;;;;7.70;5.28;;;;;;;27.92;47.62;99181.91;4130940;28;20229;-69
2022/06/30 00:32:32;;;;;;;5.53;4.53;;;;;;;27.85;48.05;99184.13;4136566;28;20229;-68
2022/06/30 00:34:34;;;;;;;8.27;4.18;;;;;;;27.77;48.25;99184.75;4144264;28;20229;-69
2022/06/30 00:36:35;;;;;;;7.70;4.18;;;;;;;27.54;48.22;99186.31;4142968;28;20229;-69
2022/06/30 00:38:38;;;;;;;7.25;4.57;;;;;;;27.17;48.92;99177.59;4144578;28;20229;-68
2022/06/30 00:40:44;;;;;;;8.23;4.47;;;;;;;27.25;48.99;99168.78;4144710;28;20264;-68
2022/06/30 00:42:46;;;;;;;5.43;4.40;;;;;;;27.25;48.69;99176.97;4143946;28;20237;-68
2022/06/30 00:44:48;;;;;;;8.23;4.50;;;;;;;27.43;48.86;99161.00;4129498;28;20243;-69
2022/06/30 00:46:50;;;;;;;7.35;4.30;;;;;;;27.34;48.56;99168.19;4128081;28;20296;-69
2022/06/30 00:48:52;;;;;;;6.43;3.92;;;;;;;27.05;49.33;99158.81;4128898;28;20237;-69
2022/06/30 00:50:58;;;;;;;5.78;4.15;;;;;;;26.75;49.52;99151.63;4143893;28;20312;-68
2022/06/30 00:53:03;;;;;;;8.43;4.22;;;;;;;26.74;49.70;99155.47;4144150;28;20241;-68
2022/06/30 00:55:05;;;;;;;5.00;4.00;;;;;;;27.02;48.91;99142.19;4142063;28;20771;-68
2022/06/30 00:57:08;;;;;;;6.45;3.90;;;;;;;27.12;48.95;99141.34;4132728;28;20241;-69
2022/06/30 00:59:13;;;;;;;7.72;4.05;;;;;;;26.46;49.61;99154.22;4131448;28;20226;-69
2022/06/30 01:01:16;;;;;;;7.88;4.18;;;;;;;27.29;48.20;99138.22;4130237;28;20679;-68
2022/06/30 01:03:19;;;;;;;4.78;3.60;;;;;;;27.02;48.21;99153.09;4127937;28;20713;-69
2022/06/30 01:05:21;;;;;;;5.65;3.53;;;;;;;27.17;48.09;99149.50;4127240;28;20702;-69
2022/06/30 01:07:24;;;;;;;5.18;3.58;;;;;;;26.96;48.32;99152.34;4127218;28;20238;-69
2022/06/30 01:14:05;;;;;;;5.28;3.88;;;;;;;27.91;46.36;99165.81;4124837;28;20320;-69
2022/06/30 01:16:07;;;;;;;7.25;3.80;;;;;;;28.13;45.96;99168.03;4122266;28;20734;-69
2022/06/30 01:18:09;;;;;;;5.50;3.75;;;;;;;27.58;46.74;99180.00;4127313;28;20324;-68
2022/06/30 01:20:12;;;;;;;6.20;3.67;;;;;;;27.49;46.70;99172.72;4129229;28;20737;-69
2022/06/30 01:22:13;;;;;;;5.35;3.88;;;;;;;27.74;46.08;99167.03;4131841;28;20704;-69
2022/06/30 01:24:15;;;;;;;4.82;3.67;;;;;;;26.92;47.69;99183.19;4127473;28;20617;-68
2022/06/30 01:26:17;;;;;;;4.13;3.50;;;;;;;26.76;47.87;99174.25;4126630;28;20238;-69
2022/06/30 01:28:20;;;;;;;4.93;3.45;;;;;;;26.64;48.57;99171.84;4128579;28;20230;-68
2022/06/30 01:30:22;;;;;;;6.78;3.83;;;;;;;26.68;48.46;99168.28;4127126;28;20292;-69
2022/06/30 01:32:28;;;;;;;5.15;3.67;;;;;;;27.66;46.69;99161.41;4126179;28;20225;-69
2022/06/30 01:34:29;;;;;;;4.95;3.70;;;;;;;27.23;47.33;99172.91;4126700;28;20609;-68
2022/06/30 01:36:31;;;;;;;3.70;3.40;;;;;;;27.48;46.25;99173.81;4126948;28;20288;-70
2022/06/30 01:38:33;;;;;;;8.25;3.80;;;;;;;27.60;45.86;99179.69;4126940;28;20276;-70
2022/06/30 01:40:35;;;;;;;6.75;4.30;;;;;;;27.60;45.83;99179.69;4127639;28;20230;-70
2022/06/30 01:42:37;;;;;;;6.40;3.78;;;;;;;27.37;46.22;99181.28;4127254;28;20365;-70
2022/06/30 01:44:39;;;;;;;4.53;3.85;;;;;;;27.22;46.77;99165.81;4119755;28;20258;-70
2022/06/30 01:46:50;;;;;;;7.57;3.90;;;;;;;26.68;48.02;99171.03;4119784;28;20287;-69
2022/06/30 01:48:52;;;;;;;5.30;4.18;;;;;;;26.59;48.02;99175.44;4135217;28;20321;-70
2022/06/30 01:50:54;;;;;;;6.43;4.25;;;;;;;26.25;48.98;99167.09;4143100;28;20233;-72
2022/06/30 01:52:57;;;;;;;6.50;4.55;;;;;;;25.97;49.92;99162.00;4139271;28;20232;-70
2022/06/30 01:54:59;;;;;;;7.28;4.57;;;;;;;27.26;47.06;99162.25;4126199;28;20238;-70
2022/06/30 01:57:00;;;;;;;5.47;3.90;;;;;;;27.06;46.97;99162.38;4126813;28;20242;-70
2022/06/30 01:59:03;;;;;;;9.23;3.88;;;;;;;27.50;46.65;99166.13;4125533;28;20265;-70
2022/06/30 02:01:05;;;;;;;7.10;3.95;;;;;;;26.56;47.88;99161.56;4126114;28;20264;-70
2022/06/30 02:03:06;;;;;;;7.90;4.18;;;;;;;26.63;47.86;99157.41;4142323;28;20338;-70
2022/06/30 02:05:09;;;;;;;7.60;4.32;;;;;;;27.67;45.82;99154.81;4142595;28;20267;-70
2022/06/30 02:07:11;;;;;;;7.30;3.97;;;;;;;27.89;45.99;99151.63;4133785;28;20638;-69
2022/06/30 02:09:12;;;;;;;6.22;4.10;;;;;;;27.62;46.14;99161.97;4126115;28;20805;-70
2022/06/30 02:11:14;;;;;;;7.38;4.30;;;;;;;27.41;46.50;99155.81;4126108;28;20241;-70
2022/06/30 02:13:16;;;;;;;7.55;4.32;;;;;;;26.68;47.43;99151.94;4126275;28;20258;-70
2022/06/30 02:15:32;;;;;;;9.30;4.78;;;;;;;26.95;47.36;99141.69;4120502;28;20912;-71
2022/06/30 02:17:35;;;;;;;6.82;5.18;;;;;;;26.78;47.60;99145.63;4127401;28;20260;-69
2022/06/30 02:19:37;;;;;;;8.25;5.25;;;;;;;27.54;46.80;99128.97;4126682;28;20241;-69
2022/06/30 02:21:38;;;;;;;6.65;5.78;;;;;;;27.62;46.37;99144.78;4132668;28;20344;-69
2022/06/30 02:23:40;;;;;;;7.82;5.60;;;;;;;27.69;46.07;99142.50;4126485;28;20238;-70
2022/06/30 02:25:42;;;;;;;8.45;6.38;;;;;;;27.33;46.70;99155.63;4118132;28;20755;-69
2022/06/30 02:27:44;;;;;;;5.97;4.82;;;;;;;27.31;46.37;99141.47;4125845;28;20309;-69
2022/06/30 02:29:46;;;;;;;7.47;4.45;;;;;;;27.02;46.58;99147.66;4120197;28;20293;-69
2022/06/30 02:31:48;;;;;;;8.75;4.95;;;;;;;26.66;47.54;99151.41;4125290;28;20288;-69
2022/06/30 02:33:49;;;;;;;10.15;5.10;;;;;;;26.66;47.58;99137.78;4125685;28;20229;-69
2022/06/30 02:35:51;;;;;;;8.77;4.75;;;;;;;26.38;47.81;99152.06;4126227;28;20894;-68
2022/06/30 02:37:53;;;;;;;10.25;5.60;;;;;;;26.40;48.13;99158.84;4126972;28;20238;-69
2022/06/30 02:39:55;;;;;;;5.43;4.85;;;;;;;26.49;48.19;99137.31;4124499;28;20308;-69
2022/06/30 02:41:57;;;;;;;6.88;4.55;;;;;;;25.39;50.61;99154.13;4126625;28;20234;-69
2022/06/30 02:43:58;;;;;;;11.80;5.68;;;;;;;25.15;51.47;99128.50;4125458;28;20328;-71
2022/06/30 02:46:00;;;;;;;6.38;5.15;;;;;;;24.67;52.25;99125.97;4119670;28;20237;-70
2022/06/30 02:48:02;;;;;;;5.38;4.85;;;;;;;24.90;51.81;99107.53;4125724;28;20230;-70
2022/06/30 02:50:06;;;;;;;9.13;5.60;;;;;;;26.29;49.20;99094.59;4136425;28;20732;-70
2022/06/30 02:52:08;;;;;;;7.93;5.50;;;;;;;26.39;49.46;99115.53;4142177;28;20237;-70
2022/06/30 02:54:09;;;;;;;8.27;5.82;;;;;;;26.23;49.33;99118.31;4141914;28;20237;-70
2022/06/30 02:56:12;;;;;;;8.27;5.72;;;;;;;26.54;48.81;99120.94;4138543;28;20241;-70
2022/06/30 02:58:18;;;;;;;6.05;5.05;;;;;;;26.35;49.04;99120.72;4125439;28;20306;-70
2022/06/30 03:00:20;;;;;;;5.70;4.82;;;;;;;26.29;49.16;99121.84;4120199;28;20281;-70
2022/06/30 03:02:22;;;;;;;8.38;4.63;;;;;;;25.42;50.31;99139.16;4126345;28;20372;-70
2022/06/30 03:04:23;;;;;;;7.35;4.53;;;;;;;25.19;50.40;99135.88;4124481;28;20234;-70
2022/06/30 03:06:26;;;;;;;7.18;4.22;;;;;;;25.46;50.04;99129.38;4125715;28;20940;-70
2022/06/30 03:08:28;;;;;;;6.50;4.72;;;;;;;25.37;49.97;99123.66;4124938;28;20676;-69
2022/06/30 03:10:29;;;;;;;10.63;4.30;;;;;;;25.44;49.55;99131.53;4124525;28;20233;-69
2022/06/30 03:12:31;;;;;;;7.20;4.50;;;;;;;25.15;50.04;99140.19;4140411;28;20225;-70
2022/06/30 03:14:33;;;;;;;7.47;4.22;;;;;;;24.82;51.02;99131.47;4131150;28;20285;-67
2022/06/30 03:16:34;;;;;;;5.82;4.13;;;;;;;24.95;50.76;99121.97;4124902;28;20237;-70
2022/06/30 03:18:36;;;;;;;9.68;5.00;;;;;;;25.61;49.61;99117.66;4127006;28;20280;-70
2022/06/30 03:20:38;;;;;;;7.95;5.18;;;;;;;25.84;49.14;99124.41;4130934;28;20797;-69
2022/06/30 03:22:39;;;;;;;7.20;4.60;;;;;;;26.08;48.57;99123.81;4125168;28;20234;-69
2022/06/30 03:24:41;;;;;;;5.85;4.53;;;;;;;26.18;48.25;99137.41;4117020;28;20295;-70
2022/06/30 03:26:43;;;;;;;8.82;5.35;;;;;;;25.39;50.32;99142.41;4126630;28;20226;-70
2022/06/30 03:28:44;;;;;;;12.38;5.15;;;;;;;25.79;49.10;99133.38;4124817;28;20242;-69
2022/06/30 03:30:47;;;;;;;7.57;4.50;;;;;;;25.83;49.21;99147.28;4119717;28;20261;-68
2022/06/30 03:32:49;;;;;;;7.93;4.95;;;;;;;26.32;48.25;99143.91;4125586;28;20233;-68
2022/06/30 03:34:51;;;;;;;7.35;4.75;;;;;;;25.92;48.57;99144.81;4124628;28;20273;-70
2022/06/30 03:36:52;;;;;;;9.93;6.07;;;;;;;26.16;48.66;99143.13;4125648;28;20225;-69
2022/06/30 03:38:54;;;;;;;6.85;4.93;;;;;;;26.36;48.08;99148.81;4126505;28;20288;-68
2022/06/30 03:40:56;;;;;;;8.15;6.10;;;;;;;26.52;47.70;99139.47;4124981;28;20233;-68
2022/06/30 03:42:58;;;;;;;7.60;6.22;;;;;;;26.59;47.55;99142.72;4124816;28;20233;-68
2022/06/30 03:44:59;;;;;;;10.15;6.80;;;;;;;26.58;47.89;99151.19;4125675;28;20297;-68
2022/06/30 03:47:01;;;;;;;7.55;5.95;;;;;;;26.13;48.54;99161.94;4129178;28;20261;-68
2022/06/30 03:49:03;;;;;;;10.10;6.20;;;;;;;26.00;49.08;99147.00;4131855;28;20236;-69
2022/06/30 03:51:05;;;;;;;8.15;6.15;;;;;;;26.07;48.97;99150.25;4143283;28;20299;-69
2022/06/30 03:53:07;;;;;;;6.18;5.57;;;;;;;26.22;48.67;99145.84;4144555;28;20241;-68
2022/06/30 03:55:09;;;;;;;7.32;5.40;;;;;;;26.41;48.28;99133.22;4131398;28;20268;-69
2022/06/30 03:57:11;;;;;;;8.27;5.70;;;;;;;26.77;47.72;99135.78;4128132;28;20730;-69
2022/06/30 03:59:12;;;;;;;9.25;5.90;;;;;;;26.70;48.28;99130.66;4126549;28;20317;-68
2022/06/30 04:01:14;;;;;;;8.27;5.60;;;;;;;26.75;48.04;99134.47;4127900;28;20236;-68
2022/06/30 04:03:16;;;;;;;10.95;5.88;;;;;;;26.35;49.16;99147.97;4127741;28;20226;-69
2022/06/30 04:05:17;;;;;;;11.48;5.38;;;;;;;26.59;48.85;99142.72;4125584;28;20289;-68
2022/06/30 04:07:19;;;;;;;9.25;5.68;;;;;;;25.97;50.49;99147.56;4124925;28;20699;-69
2022/06/30 04:09:20;;;;;;;6.15;4.95;;;;;;;26.45;49.78;99142.47;4126788;28;20261;-69
2022/06/30 04:11:22;;;;;;;6.97;5.00;;;;;;;26.64;49.10;99141.88;4125609;28;20265;-69
2022/06/30 04:13:24;;;;;;;10.40;5.55;;;;;;;24.89;53.23;99139.38;4125719;28;20238;-69
2022/06/30 04:15:27;;;;;;;7.53;5.53;;;;;;;26.52;48.95;99137.59;4124999;28;20230;-69
2022/06/30 04:17:29;;;;;;;7.55;5.60;;;;;;;26.79;48.48;99140.97;4131283;28;20288;-69
2022/06/30 04:19:30;;;;;;;6.25;5.47;;;;;;;26.86;48.76;99145.03;4133554;28;20226;-68
2022/06/30 04:21:32;;;;;;;6.10;5.07;;;;;;;26.84;48.84;99140.94;4143237;28;20229;-69
2022/06/30 04:23:33;;;;;;;5.93;4.75;;;;;;;26.89;48.78;99133.56;4143824;28;20233;-69
2022/06/30 04:25:35;;;;;;;6.53;4.95;;;;;;;26.95;48.51;99145.25;4142859;28;20233;-69
2022/06/30 04:27:41;;;;;;;6.10;4.80;;;;;;;26.51;49.28;99129.69;4144669;28;20233;-68
2022/06/30 04:29:42;;;;;;;7.18;4.93;;;;;;;24.67;53.06;99143.09;4137665;28;20234;-68
2022/06/30 04:34:04;;;;;;;5.88;4.30;;;;;;;23.36;55.33;99116.53;4143270;28;20232;-68
2022/06/30 04:36:06;;;;;;;7.20;4.32;;;;;;;24.26;53.59;99109.50;4143869;28;20233;-68
2022/06/30 04:38:08;;;;;;;7.30;4.53;;;;;;;25.40;51.36;99109.50;4144001;28;20275;-68
2022/06/30 04:42:30;;;;;;;6.40;4.43;;;;;;;24.27;53.59;99111.97;4143387;28;20229;-69
2022/06/30 04:44:32;;;;;;;5.30;4.25;;;;;;;23.86;54.47;99119.09;4138465;28;20907;-68
2022/06/30 04:46:33;;;;;;;7.57;4.30;;;;;;;24.92;51.91;99113.53;4127591;28;20288;-69
2022/06/30 04:48:35;;;;;;;7.13;4.68;;;;;;;26.04;49.77;99125.47;4127495;28;20304;-69
2022/06/30 04:50:38;;;;;;;6.57;4.57;;;;;;;25.28;51.01;99130.69;4142999;28;20225;-68
2022/06/30 04:52:40;;;;;;;6.95;4.50;;;;;;;24.38;53.09;99136.44;4143333;28;20295;-68
2022/06/30 04:54:41;;;;;;;9.30;4.22;;;;;;;24.15;53.93;99124.13;4119021;28;20689;-68
2022/06/30 04:56:43;;;;;;;7.55;4.25;;;;;;;24.92;52.15;99118.97;4127112;28;20226;-69
2022/06/30 04:58:45;;;;;;;7.70;4.63;;;;;;;24.64;52.72;99126.50;4126635;28;20284;-68
2022/06/30 05:02:22;;;;;;;8.52;5.55;;;;;;;24.98;52.63;99077.91;4170408;27;20568;-67
2022/06/30 05:04:24;;;;;;;8.05;4.90;;;;;;;25.60;51.45;99088.78;4189038;28;20227;-68
2022/06/30 05:06:26;;;;;;;8.38;5.03;;;;;;;26.10;50.38;99125.19;4187752;28;20840;-68
2022/06/30 05:08:28;;;;;;;8.52;5.10;;;;;;;25.44;51.76;99136.16;4186714;28;20293;-68
2022/06/30 05:10:30;;;;;;;7.63;4.80;;;;;;;25.56;50.97;99113.03;4189421;28;20230;-68
2022/06/30 05:12:32;;;;;;;6.72;5.30;;;;;;;25.33;51.08;99122.53;4188396;28;20618;-68
2022/06/30 05:14:33;;;;;;;8.95;5.10;;;;;;;23.82;53.83;99131.53;4187646;28;20900;-68
2022/06/30 05:16:36;;;;;;;5.68;4.60;;;;;;;24.95;52.67;99104.84;4188937;28;20288;-68
2022/06/30 05:18:37;;;;;;;6.38;4.80;;;;;;;25.66;51.23;99093.16;4189924;28;20285;-71
2022/06/30 05:20:40;;;;;;;6.57;4.78;;;;;;;23.98;54.56;99114.25;4194390;28;20789;-68
2022/06/30 05:22:42;;;;;;;6.30;4.85;;;;;;;23.71;55.31;99100.81;4188567;28;20231;-70
2022/06/30 05:27:04;;;;;;;10.00;6.05;;;;;;;25.15;51.93;99102.13;4188759;28;20289;-68
2022/06/30 05:29:06;;;;;;;10.70;4.32;;;;;;;23.72;54.49;99116.81;4187052;28;20712;-68
2022/06/30 05:31:08;;;;;;;6.57;4.70;;;;;;;24.78;52.69;99110.50;4184680;28;21005;-68
2022/06/30 05:33:10;;;;;;;6.97;4.32;;;;;;;25.36;51.79;99100.25;4187292;28;20231;-69
2022/06/30 05:35:12;;;;;;;7.60;4.22;;;;;;;26.32;50.21;99107.66;4188072;28;20239;-68
2022/06/30 05:37:14;;;;;;;6.80;4.63;;;;;;;26.02;50.22;99123.03;4189240;28;20262;-72
2022/06/30 05:39:17;;;;;;;5.28;4.25;;;;;;;26.44;49.77;99110.06;4188222;28;20797;-69
2022/06/30 05:41:18;;;;;;;10.27;4.70;;;;;;;26.91;48.61;99111.44;4188654;28;20224;-69
2022/06/30 05:43:20;;;;;;;4.72;4.25;;;;;;;27.02;48.55;99123.91;4189075;28;20234;-69
2022/06/30 05:45:22;;;;;;;6.70;3.90;;;;;;;25.40;51.50;99136.69;4180821;28;20243;-69
2022/06/30 05:47:23;;;;;;;10.95;4.03;;;;;;;25.85;51.57;99125.25;4189145;28;20227;-70
2022/06/30 05:49:26;;;;;;;7.63;4.70;;;;;;;26.99;49.11;99118.19;4188298;28;20231;-68
2022/06/30 05:51:27;;;;;;;5.38;4.70;;;;;;;25.73;51.83;99110.00;4191349;28;20224;-70
2022/06/30 05:53:29;;;;;;;7.32;4.40;;;;;;;25.18;52.57;99122.53;4188249;28;20234;-69
2022/06/30 05:55:31;;;;;;;8.25;4.75;;;;;;;24.71;53.58;99124.34;4187634;28;20231;-69
2022/06/30 05:57:54;;;;;;;6.47;4.85;;;;;;;24.65;54.20;99095.53;4188031;28;20227;-69
2022/06/30 05:59:55;;;;;;;6.20;4.28;;;;;;;25.60;52.29;99088.78;4182284;28;20795;-69
2022/06/30 06:01:57;;;;;;;6.45;4.80;;;;;;;24.42;54.52;99113.94;4181412;28;20242;-69
2022/06/30 06:03:59;;;;;;;6.53;4.57;;;;;;;24.90;53.64;99115.69;4195523;28;20232;-70
2022/06/30 06:06:01;;;;;;;5.18;4.50;;;;;;;24.23;54.76;99100.00;4187529;28;20239;-68
2022/06/30 06:08:10;;;;;;;7.75;4.93;;;;;;;24.84;53.55;99104.00;4188931;28;20284;-69
2022/06/30 06:10:15;;;;;;;9.57;4.88;;;;;;;25.77;51.63;99096.66;4187691;28;20223;-69
2022/06/30 06:12:16;;;;;;;9.05;4.57;;;;;;;26.13;50.82;99113.75;4184792;28;20232;-69
2022/06/30 06:14:19;;;;;;;6.03;4.78;;;;;;;26.73;49.78;99104.75;4173975;28;20232;-69
2022/06/30 06:16:22;;;;;;;6.88;4.85;;;;;;;26.29;50.24;99121.84;4173116;28;20255;-70
2022/06/30 06:18:23;;;;;;;5.32;4.32;;;;;;;26.55;50.42;99114.38;4177398;28;20220;-69
2022/06/30 06:20:25;;;;;;;5.22;4.60;;;;;;;26.86;48.97;99125.94;4180995;28;20219;-69
2022/06/30 06:22:27;;;;;;;6.40;4.63;;;;;;;26.09;51.18;99118.09;4177912;28;20230;-69
2022/06/30 06:24:28;;;;;;;4.97;4.43;;;;;;;27.05;48.60;99128.00;4177262;28;20231;-70
2022/06/30 06:26:30;;;;;;;5.43;4.47;;;;;;;26.77;49.82;99122.16;4177097;28;20227;-70
2022/06/30 06:30:53;;;;;;;5.47;4.47;;;;;;;27.31;48.11;99128.63;4170577;28;20235;-69
2022/06/30 06:32:54;;;;;;;6.00;4.38;;;;;;;27.31;47.65;99136.81;4176468;28;20224;-68
2022/06/30 06:34:57;;;;;;;8.05;4.40;;;;;;;26.52;50.22;99145.75;4174981;28;20293;-69
2022/06/30 06:36:59;;;;;;;6.15;4.03;;;;;;;26.55;49.65;99138.09;4177501;28;20285;-69
2022/06/30 06:39:00;;;;;;;4.75;3.88;;;;;;;26.10;50.81;99146.97;4177508;28;20243;-69
2022/06/30 06:41:04;;;;;;;5.90;4.57;;;;;;;27.39;47.62;99121.75;4176520;28;20282;-69
2022/06/30 06:43:06;;;;;;;3.83;3.40;;;;;;;27.28;47.79;99131.09;4177281;28;20293;-68
2022/06/30 06:45:08;;;;;;;6.45;4.07;;;;;;;27.44;46.96;99132.63;4175344;28;20232;-69
2022/06/30 06:47:10;;;;;;;8.90;3.97;;;;;;;28.09;45.58;99139.63;4176234;28;20309;-71
2022/06/30 06:49:11;;;;;;;6.40;3.72;;;;;;;28.15;45.61;99136.56;4176860;28;20297;-71
2022/06/30 06:51:13;;;;;;;6.30;3.97;;;;;;;27.83;46.21;99147.31;4182671;28;20307;-71
2022/06/30 06:53:15;;;;;;;4.78;3.85;;;;;;;27.16;47.51;99148.69;4174890;28;20658;-71
2022/06/30 06:55:17;;;;;;;6.57;3.60;;;;;;;28.11;45.42;99135.50;4176542;28;20248;-71
2022/06/30 06:57:18;;;;;;;4.50;3.33;;;;;;;28.64;44.43;99147.47;4177768;28;20232;-71
2022/06/30 06:59:20;;;;;;;11.30;3.90;;;;;;;26.43;49.21;99150.13;4172730;28;20224;-70
2022/06/30 07:01:22;;;;;;;5.13;3.50;;;;;;;27.90;46.07;99126.72;4174991;28;20236;-71
2022/06/30 07:03:24;;;;;;;4.90;4.35;;;;;;;28.42;44.37;99139.81;4176305;28;20637;-70
2022/06/30 07:05:26;;;;;;;6.18;3.67;;;;;;;28.68;44.68;99143.88;4175639;28;20236;-70
2022/06/30 07:07:28;;;;;;;6.32;4.07;;;;;;;28.63;44.98;99137.63;4176930;28;20220;-70
2022/06/30 07:09:29;;;;;;;4.93;3.75;;;;;;;28.16;46.44;99137.41;4175505;28;20269;-71
2022/06/30 07:11:31;;;;;;;5.13;3.78;;;;;;;27.86;47.05;99131.16;4174957;28;20228;-70
2022/06/30 07:13:35;;;;;;;4.68;3.50;;;;;;;28.30;45.59;99119.19;4175777;28;20231;-70
2022/06/30 07:15:37;;;;;;;8.07;3.90;;;;;;;28.07;46.69;99112.59;4168644;28;20300;-70
2022/06/30 07:17:38;;;;;;;4.00;3.55;;;;;;;28.05;47.49;99112.06;4175432;28;20236;-70
2022/06/30 07:19:40;;;;;;;5.00;3.83;;;;;;;28.03;47.97;99116.22;4177003;28;20232;-69
2022/06/30 07:21:42;;;;;;;5.45;3.70;;;;;;;28.91;46.17;99116.72;4181016;28;20235;-69
2022/06/30 07:23:44;;;;;;;4.75;4.10;;;;;;;29.42;45.20;99117.84;4173089;28;20265;-70
2022/06/30 07:25:45;;;;;;;6.03;3.95;;;;;;;29.30;45.38;99129.28;4174910;28;20310;-70
2022/06/30 07:27:47;;;;;;;5.30;3.72;;;;;;;29.16;45.74;99123.72;4176275;28;20259;-71
2022/06/30 07:29:55;;;;;;;8.20;4.10;;;;;;;28.73;46.36;99123.81;4168394;28;20238;-70
2022/06/30 07:31:57;;;;;;;5.55;3.47;;;;;;;28.63;46.59;99121.22;4175883;28;20231;-70
2022/06/30 07:33:59;;;;;;;4.63;3.25;;;;;;;28.67;47.30;99112.13;4175637;28;20246;-70
2022/06/30 07:36:01;;;;;;;4.57;3.50;;;;;;;28.57;47.34;99112.28;4174668;28;20240;-70
2022/06/30 07:38:02;;;;;;;5.47;3.17;;;;;;;28.43;46.94;99117.66;4176005;28;20279;-70
2022/06/30 07:40:06;;;;;;;4.25;3.08;;;;;;;28.55;46.27;99112.56;4176220;28;20231;-71
2022/06/30 07:42:09;;;;;;;4.70;3.20;;;;;;;28.84;44.97;99119.84;4175558;28;20236;-70
2022/06/30 07:44:11;;;;;;;4.78;3.20;;;;;;;28.23;44.43;99129.66;4173374;28;20330;-71
2022/06/30 07:46:14;;;;;;;5.50;3.10;;;;;;;29.02;44.84;99117.41;4172350;28;20228;-70
2022/06/30 07:48:16;;;;;;;4.07;3.50;;;;;;;28.91;44.59;99120.28;4175255;28;20688;-70
2022/06/30 07:50:18;;;;;;;5.85;3.38;;;;;;;28.12;45.71;99120.75;4178497;28;20288;-71
2022/06/30 07:52:20;;;;;;;7.13;3.33;;;;;;;28.82;44.51;99099.38;4178541;28;20615;-70
2022/06/30 07:54:23;;;;;;;4.72;3.13;;;;;;;28.76;45.38;99109.56;4175345;28;20238;-70
2022/06/30 07:56:25;;;;;;;4.10;3.13;;;;;;;29.42;45.77;99115.94;4174761;28;20220;-70
2022/06/30 07:58:27;;;;;;;4.63;3.50;;;;;;;29.54;44.61;99120.09;4175839;28;20235;-70
2022/06/30 08:00:28;;;;;;;7.00;3.42;;;;;;;28.97;45.96;99114.72;4168347;28;20223;-71
2022/06/30 08:02:30;;;;;;;5.78;3.30;;;;;;;29.32;45.71;99105.16;4174765;28;20615;-70
2022/06/30 08:04:33;;;;;;;4.78;2.95;;;;;;;29.44;45.09;99108.22;4175961;28;20266;-70
2022/06/30 08:06:35;;;;;;;5.18;3.17;;;;;;;29.41;45.98;99110.75;4175196;28;20228;-70
2022/06/30 08:08:36;;;;;;;5.22;3.20;;;;;;;29.44;45.72;99102.75;4175093;28;20293;-71
2022/06/30 08:10:38;;;;;;;5.45;3.42;;;;;;;29.03;45.12;99106.13;4175812;28;20314;-70
2022/06/30 08:12:40;;;;;;;3.90;3.53;;;;;;;29.90;44.21;99089.34;4174392;28;20254;-70
2022/06/30 08:14:41;;;;;;;5.88;3.53;;;;;;;29.42;45.05;99104.16;4174218;28;20317;-70
2022/06/30 08:16:43;;;;;;;6.20;3.53;;;;;;;29.56;45.53;99085.84;4175399;28;20295;-70
2022/06/30 08:18:45;;;;;;;4.72;3.40;;;;;;;29.60;45.64;99078.63;4175640;28;20239;-70
2022/06/30 08:20:47;;;;;;;5.25;3.60;;;;;;;29.98;45.41;99074.94;4180715;28;20932;-70
2022/06/30 08:22:48;;;;;;;7.32;3.50;;;;;;;29.69;45.24;99094.38;4173071;28;20235;-70
2022/06/30 08:24:50;;;;;;;6.55;3.20;;;;;;;30.10;44.02;99080.72;4173562;28;20782;-70
2022/06/30 08:26:53;;;;;;;3.88;3.35;;;;;;;29.66;44.91;99082.91;4175345;28;20232;-70
2022/06/30 08:28:54;;;;;;;5.10;3.08;;;;;;;30.08;43.81;99068.41;4174513;28;20594;-69
2022/06/30 08:30:56;;;;;;;3.92;3.50;;;;;;;29.74;44.25;99081.41;4168998;28;20239;-70
2022/06/30 08:32:57;;;;;;;5.55;3.17;;;;;;;29.81;44.42;99079.09;4174750;28;20832;-70
2022/06/30 08:34:59;;;;;;;4.78;3.70;;;;;;;30.61;43.76;99075.25;4174170;28;20285;-70
2022/06/30 08:37:01;;;;;;;8.02;3.20;;;;;;;29.72;44.37;99089.13;4174341;28;20243;-70
2022/06/30 08:39:03;;;;;;;8.52;3.50;;;;;;;29.81;45.33;99081.84;4174496;28;20223;-70
2022/06/30 08:43:25;;;;;;;5.03;3.30;;;;;;;29.81;45.18;99076.34;4174435;28;20269;-70
2022/06/30 08:45:30;;;;;;;5.03;3.50;;;;;;;30.60;45.71;99062.66;4166878;28;20236;-70
2022/06/30 08:47:32;;;;;;;9.00;3.65;;;;;;;30.68;44.37;99073.69;4175110;28;20234;-70
2022/06/30 08:49:34;;;;;;;7.90;3.47;;;;;;;30.92;43.23;99078.94;4174945;28;20227;-70
2022/06/30 08:51:38;;;;;;;5.82;3.70;;;;;;;30.53;43.63;99082.28;4180500;28;20239;-70
2022/06/30 08:53:46;;;;;;;3.63;2.90;;;;;;;30.51;44.21;99079.84;4174693;28;20883;-70
2022/06/30 08:55:48;;;;;;;4.88;3.20;;;;;;;30.69;43.64;99075.31;4174324;28;20928;-71
2022/06/30 08:57:53;;;;;;;8.00;3.15;;;;;;;30.92;44.15;99072.59;4173940;28;20247;-71
2022/06/30 08:59:55;;;;;;;6.95;3.13;;;;;;;31.29;43.20;99082.44;4175248;28;20232;-70
2022/06/30 09:01:57;;;;;;;3.65;3.33;;;;;;;30.86;42.79;99079.34;4174506;28;20243;-71
2022/06/30 09:03:59;;;;;;;4.22;2.92;;;;;;;31.27;43.15;99081.09;4173962;28;20231;-71
2022/06/30 09:06:01;;;;;;;6.38;3.63;;;;;;;30.85;43.29;99073.03;4174603;28;20743;-71
2022/06/30 09:08:03;;;;;;;3.58;3.00;;;;;;;30.47;42.63;99067.03;4175406;28;20654;-70
2022/06/30 09:10:25;;;;;;;5.43;3.50;;;;;;;31.26;42.63;99072.06;4174662;28;20644;-70
2022/06/30 09:12:27;;;;;;;6.78;3.70;;;;;;;31.36;43.56;99062.72;4172986;28;20234;-70
2022/06/30 09:14:40;;;;;;;4.38;3.40;;;;;;;30.51;43.14;99062.56;4169185;28;20282;-70
2022/06/30 09:16:52;;;;;;;5.30;3.70;;;;;;;31.33;41.60;99065.28;4166798;28;20310;-70
2022/06/30 09:18:58;;;;;;;6.07;3.30;;;;;;;31.20;41.52;99061.50;4174982;28;20267;-71
2022/06/30 09:21:07;;;;;;;5.80;3.58;;;;;;;31.53;42.22;99059.28;4180507;28;20235;-70
2022/06/30 09:23:27;;;;;;;5.13;3.55;;;;;;;31.12;44.16;99065.78;4174063;28;20289;-70
2022/06/30 09:25:32;;;;;;;3.92;3.50;;;;;;;30.31;41.83;99042.72;4174206;28;20592;-70
2022/06/30 09:27:36;;;;;;;5.30;3.30;;;;;;;31.05;43.43;99048.97;4174319;28;20223;-70
2022/06/30 09:29:51;;;;;;;5.53;3.47;;;;;;;31.17;43.13;99045.66;4167851;28;20240;-70
2022/06/30 09:32:13;;;;;;;5.20;3.55;;;;;;;30.27;44.38;99035.44;4170842;28;20645;-70
2022/06/30 09:34:19;;;;;;;8.80;3.30;;;;;;;31.14;43.99;99030.59;4174002;28;20223;-70
2022/06/30 09:36:26;;;;;;;4.68;3.40;;;;;;;32.39;42.08;99041.44;4173712;28;20263;-70
2022/06/30 09:38:31;;;;;;;4.88;3.40;;;;;;;30.05;44.58;99030.63;4175119;28;20230;-70
2022/06/30 09:41:00;;;;;;;6.40;3.45;;;;;;;30.70;43.98;99013.81;4174315;28;20236;-70
2022/06/30 09:43:03;;;;;;;4.03;3.38;;;;;;;31.55;42.60;99024.06;4173676;28;20243;-71
2022/06/30 09:45:06;;;;;;;4.35;3.45;;;;;;;31.88;42.26;99037.44;4166476;28;20236;-72
2022/06/30 09:47:10;;;;;;;5.68;3.30;;;;;;;32.06;41.56;99027.28;4173755;28;20278;-71
2022/06/30 09:49:47;;;;;;;5.85;3.47;;;;;;;31.80;40.82;99036.28;4177414;28;20732;-71
2022/06/30 09:51:48;;;;;;;3.88;3.20;;;;;;;31.63;40.63;99037.00;4181643;28;20242;-71
2022/06/30 09:54:08;;;;;;;6.75;3.30;;;;;;;31.97;40.85;99038.28;4177715;28;20232;-71
2022/06/30 09:56:14;;;;;;;6.40;3.40;;;;;;;31.88;41.48;99023.69;4177021;28;20829;-71